sensor_id;sensor_type;location;lat;lon;timestamp;temperature;humidity
65378;SHT31;51982;51.042;13.806;2024-01-30T00:00:50;6.38;75.54
65378;SHT31;51982;51.042;13.806;2024-01-30T00:03:15;6.35;75.51
65378;SHT31;51982;51.042;13.806;2024-01-30T00:05:41;6.31;75.54
65378;SHT31;51982;51.042;13.806;2024-01-30T00:08:06;6.35;75.41
65378;SHT31;51982;51.042;13.806;2024-01-30T00:10:31;6.35;75.43
65378;SHT31;51982;51.042;13.806;2024-01-30T00:12:56;6.34;75.42
65378;SHT31;51982;51.042;13.806;2024-01-30T00:15:22;6.28;75.47
65378;SHT31;51982;51.042;13.806;2024-01-30T00:17:47;6.32;75.43
65378;SHT31;51982;51.042;13.806;2024-01-30T00:20:13;6.29;75.48
65378;SHT31;51982;51.042;13.806;2024-01-30T00:22:38;6.32;75.46
65378;SHT31;51982;51.042;13.806;2024-01-30T00:25:03;6.29;75.44
65378;SHT31;51982;51.042;13.806;2024-01-30T00:27:29;6.22;75.57
65378;SHT31;51982;51.042;13.806;2024-01-30T00:29:54;6.22;75.53
65378;SHT31;51982;51.042;13.806;2024-01-30T00:32:20;6.25;75.56
65378;SHT31;51982;51.042;13.806;2024-01-30T00:34:45;6.25;75.50
65378;SHT31;51982;51.042;13.806;2024-01-30T00:37:10;6.24;75.52
65378;SHT31;51982;51.042;13.806;2024-01-30T00:39:36;6.22;75.43
65378;SHT31;51982;51.042;13.806;2024-01-30T00:42:01;6.21;75.45
65378;SHT31;51982;51.042;13.806;2024-01-30T00:44:27;6.22;75.41
65378;SHT31;51982;51.042;13.806;2024-01-30T00:46:52;6.22;75.34
65378;SHT31;51982;51.042;13.806;2024-01-30T00:49:17;6.20;75.34
65378;SHT31;51982;51.042;13.806;2024-01-30T00:51:42;6.24;75.30
65378;SHT31;51982;51.042;13.806;2024-01-30T00:54:08;6.22;75.22
65378;SHT31;51982;51.042;13.806;2024-01-30T00:56:33;6.18;75.23
65378;SHT31;51982;51.042;13.806;2024-01-30T00:58:59;6.17;75.28
65378;SHT31;51982;51.042;13.806;2024-01-30T01:01:24;6.17;75.30
65378;SHT31;51982;51.042;13.806;2024-01-30T01:03:49;6.15;75.24
65378;SHT31;51982;51.042;13.806;2024-01-30T01:06:14;6.17;75.22
65378;SHT31;51982;51.042;13.806;2024-01-30T01:08:40;6.14;75.13
65378;SHT31;51982;51.042;13.806;2024-01-30T01:11:05;6.15;75.10
65378;SHT31;51982;51.042;13.806;2024-01-30T01:13:30;6.10;75.09
65378;SHT31;51982;51.042;13.806;2024-01-30T01:15:55;6.07;75.16
65378;SHT31;51982;51.042;13.806;2024-01-30T01:18:21;6.08;75.21
65378;SHT31;51982;51.042;13.806;2024-01-30T01:20:46;6.07;75.21
65378;SHT31;51982;51.042;13.806;2024-01-30T01:23:11;6.05;75.22
65378;SHT31;51982;51.042;13.806;2024-01-30T01:25:37;6.04;75.28
65378;SHT31;51982;51.042;13.806;2024-01-30T01:28:02;6.04;75.25
65378;SHT31;51982;51.042;13.806;2024-01-30T01:30:28;5.98;75.30
65378;SHT31;51982;51.042;13.806;2024-01-30T01:32:54;5.98;75.32
65378;SHT31;51982;51.042;13.806;2024-01-30T01:35:25;5.98;75.34
65378;SHT31;51982;51.042;13.806;2024-01-30T01:37:51;6.00;75.32
65378;SHT31;51982;51.042;13.806;2024-01-30T01:40:26;5.91;75.33
65378;SHT31;51982;51.042;13.806;2024-01-30T01:42:52;5.95;75.41
65378;SHT31;51982;51.042;13.806;2024-01-30T01:45:18;5.90;75.48
65378;SHT31;51982;51.042;13.806;2024-01-30T01:47:43;5.93;75.57
65378;SHT31;51982;51.042;13.806;2024-01-30T01:50:12;5.94;75.52
65378;SHT31;51982;51.042;13.806;2024-01-30T01:52:38;5.91;75.65
65378;SHT31;51982;51.042;13.806;2024-01-30T01:55:05;5.91;75.65
65378;SHT31;51982;51.042;13.806;2024-01-30T01:57:31;5.93;75.66
65378;SHT31;51982;51.042;13.806;2024-01-30T01:59:57;5.93;75.63
65378;SHT31;51982;51.042;13.806;2024-01-30T02:02:23;5.87;75.70
65378;SHT31;51982;51.042;13.806;2024-01-30T02:04:50;5.89;75.66
65378;SHT31;51982;51.042;13.806;2024-01-30T02:07:15;5.87;75.74
65378;SHT31;51982;51.042;13.806;2024-01-30T02:09:40;5.87;75.74
65378;SHT31;51982;51.042;13.806;2024-01-30T02:12:06;5.84;75.80
65378;SHT31;51982;51.042;13.806;2024-01-30T02:14:31;5.84;75.80
65378;SHT31;51982;51.042;13.806;2024-01-30T02:16:56;5.83;75.77
65378;SHT31;51982;51.042;13.806;2024-01-30T02:19:22;5.83;75.70
65378;SHT31;51982;51.042;13.806;2024-01-30T02:21:47;5.84;75.71
65378;SHT31;51982;51.042;13.806;2024-01-30T02:24:12;5.84;75.72
65378;SHT31;51982;51.042;13.806;2024-01-30T02:26:38;5.80;75.77
65378;SHT31;51982;51.042;13.806;2024-01-30T02:29:03;5.78;75.86
65378;SHT31;51982;51.042;13.806;2024-01-30T02:31:28;5.78;75.87
65378;SHT31;51982;51.042;13.806;2024-01-30T02:33:53;5.80;75.90
65378;SHT31;51982;51.042;13.806;2024-01-30T02:36:18;5.69;75.92
65378;SHT31;51982;51.042;13.806;2024-01-30T02:38:44;5.75;75.98
65378;SHT31;51982;51.042;13.806;2024-01-30T02:41:11;5.75;76.01
65378;SHT31;51982;51.042;13.806;2024-01-30T02:43:36;5.78;75.95
65378;SHT31;51982;51.042;13.806;2024-01-30T02:46:01;5.74;75.99
65378;SHT31;51982;51.042;13.806;2024-01-30T02:48:27;5.74;75.99
65378;SHT31;51982;51.042;13.806;2024-01-30T02:50:52;5.78;75.96
65378;SHT31;51982;51.042;13.806;2024-01-30T02:53:17;5.71;75.99
65378;SHT31;51982;51.042;13.806;2024-01-30T02:55:42;5.75;75.95
65378;SHT31;51982;51.042;13.806;2024-01-30T02:58:08;5.71;76.02
65378;SHT31;51982;51.042;13.806;2024-01-30T03:00:33;5.70;76.02
65378;SHT31;51982;51.042;13.806;2024-01-30T03:02:58;5.69;76.07
65378;SHT31;51982;51.042;13.806;2024-01-30T03:05:23;5.71;75.99
65378;SHT31;51982;51.042;13.806;2024-01-30T03:07:49;5.71;76.12
65378;SHT31;51982;51.042;13.806;2024-01-30T03:10:14;5.70;76.12
65378;SHT31;51982;51.042;13.806;2024-01-30T03:12:39;5.75;76.08
65378;SHT31;51982;51.042;13.806;2024-01-30T03:15:05;5.71;76.13
65378;SHT31;51982;51.042;13.806;2024-01-30T03:17:30;5.73;76.16
65378;SHT31;51982;51.042;13.806;2024-01-30T03:19:55;5.73;76.10
65378;SHT31;51982;51.042;13.806;2024-01-30T03:22:20;5.74;76.07
65378;SHT31;51982;51.042;13.806;2024-01-30T03:24:46;5.77;76.02
65378;SHT31;51982;51.042;13.806;2024-01-30T03:27:11;5.73;76.03
65378;SHT31;51982;51.042;13.806;2024-01-30T03:29:36;5.74;76.02
65378;SHT31;51982;51.042;13.806;2024-01-30T03:32:02;5.67;76.02
65378;SHT31;51982;51.042;13.806;2024-01-30T03:34:28;5.69;76.07
65378;SHT31;51982;51.042;13.806;2024-01-30T03:36:54;5.64;76.16
65378;SHT31;51982;51.042;13.806;2024-01-30T03:39:19;5.63;76.20
65378;SHT31;51982;51.042;13.806;2024-01-30T03:41:44;5.66;76.09
65378;SHT31;51982;51.042;13.806;2024-01-30T03:44:10;5.60;76.20
65378;SHT31;51982;51.042;13.806;2024-01-30T03:46:35;5.57;76.28
65378;SHT31;51982;51.042;13.806;2024-01-30T03:49:00;5.56;76.33
65378;SHT31;51982;51.042;13.806;2024-01-30T03:51:26;5.59;76.26
65378;SHT31;51982;51.042;13.806;2024-01-30T03:53:51;5.59;76.29
65378;SHT31;51982;51.042;13.806;2024-01-30T03:56:16;5.57;76.36
65378;SHT31;51982;51.042;13.806;2024-01-30T03:58:41;5.59;76.36
65378;SHT31;51982;51.042;13.806;2024-01-30T04:01:07;5.59;76.39
65378;SHT31;51982;51.042;13.806;2024-01-30T04:03:32;5.53;76.46
65378;SHT31;51982;51.042;13.806;2024-01-30T04:05:58;5.56;76.47
65378;SHT31;51982;51.042;13.806;2024-01-30T04:08:23;5.57;76.47
65378;SHT31;51982;51.042;13.806;2024-01-30T04:10:48;5.49;76.60
65378;SHT31;51982;51.042;13.806;2024-01-30T04:13:13;5.50;76.53
65378;SHT31;51982;51.042;13.806;2024-01-30T04:15:39;5.53;76.57
65378;SHT31;51982;51.042;13.806;2024-01-30T04:18:04;5.53;76.60
65378;SHT31;51982;51.042;13.806;2024-01-30T04:20:30;5.49;76.66
65378;SHT31;51982;51.042;13.806;2024-01-30T04:22:55;5.53;76.60
65378;SHT31;51982;51.042;13.806;2024-01-30T04:25:21;5.51;76.62
65378;SHT31;51982;51.042;13.806;2024-01-30T04:27:46;5.53;76.57
65378;SHT31;51982;51.042;13.806;2024-01-30T04:30:11;5.53;76.58
65378;SHT31;51982;51.042;13.806;2024-01-30T04:32:36;5.53;76.57
65378;SHT31;51982;51.042;13.806;2024-01-30T04:35:02;5.51;76.55
65378;SHT31;51982;51.042;13.806;2024-01-30T04:37:28;5.54;76.66
65378;SHT31;51982;51.042;13.806;2024-01-30T04:39:53;5.54;76.60
65378;SHT31;51982;51.042;13.806;2024-01-30T04:42:18;5.47;76.69
65378;SHT31;51982;51.042;13.806;2024-01-30T04:44:44;5.50;76.62
65378;SHT31;51982;51.042;13.806;2024-01-30T04:47:09;5.53;76.63
65378;SHT31;51982;51.042;13.806;2024-01-30T04:49:36;5.53;76.61
65378;SHT31;51982;51.042;13.806;2024-01-30T04:52:01;5.51;76.63
65378;SHT31;51982;51.042;13.806;2024-01-30T04:54:26;5.46;76.73
65378;SHT31;51982;51.042;13.806;2024-01-30T04:56:52;5.49;76.80
65378;SHT31;51982;51.042;13.806;2024-01-30T04:59:17;5.44;76.84
65378;SHT31;51982;51.042;13.806;2024-01-30T05:01:42;5.49;76.85
65378;SHT31;51982;51.042;13.806;2024-01-30T05:04:08;5.47;76.90
65378;SHT31;51982;51.042;13.806;2024-01-30T05:06:34;5.43;77.00
65378;SHT31;51982;51.042;13.806;2024-01-30T05:08:59;5.42;77.01
65378;SHT31;51982;51.042;13.806;2024-01-30T05:11:24;5.43;77.04
65378;SHT31;51982;51.042;13.806;2024-01-30T05:13:49;5.43;77.08
65378;SHT31;51982;51.042;13.806;2024-01-30T05:16:14;5.43;77.06
65378;SHT31;51982;51.042;13.806;2024-01-30T05:18:40;5.38;77.05
65378;SHT31;51982;51.042;13.806;2024-01-30T05:21:05;5.40;77.15
65378;SHT31;51982;51.042;13.806;2024-01-30T05:23:30;5.38;77.21
65378;SHT31;51982;51.042;13.806;2024-01-30T05:25:56;5.39;77.20
65378;SHT31;51982;51.042;13.806;2024-01-30T05:28:21;5.40;77.10
65378;SHT31;51982;51.042;13.806;2024-01-30T05:30:46;5.39;77.15
65378;SHT31;51982;51.042;13.806;2024-01-30T05:33:11;5.29;77.40
65378;SHT31;51982;51.042;13.806;2024-01-30T05:35:37;5.30;77.27
65378;SHT31;51982;51.042;13.806;2024-01-30T05:38:03;5.30;77.39
65378;SHT31;51982;51.042;13.806;2024-01-30T05:40:28;5.35;77.38
65378;SHT31;51982;51.042;13.806;2024-01-30T05:42:53;5.35;77.45
65378;SHT31;51982;51.042;13.806;2024-01-30T05:45:18;5.32;77.48
65378;SHT31;51982;51.042;13.806;2024-01-30T05:47:44;5.36;77.53
65378;SHT31;51982;51.042;13.806;2024-01-30T05:50:09;5.35;77.50
65378;SHT31;51982;51.042;13.806;2024-01-30T05:52:34;5.29;77.58
65378;SHT31;51982;51.042;13.806;2024-01-30T05:54:59;5.32;77.58
65378;SHT31;51982;51.042;13.806;2024-01-30T05:57:25;5.30;77.63
65378;SHT31;51982;51.042;13.806;2024-01-30T05:59:50;5.28;77.62
65378;SHT31;51982;51.042;13.806;2024-01-30T06:02:17;5.29;77.69
65378;SHT31;51982;51.042;13.806;2024-01-30T06:04:42;5.23;77.87
65378;SHT31;51982;51.042;13.806;2024-01-30T06:07:07;5.25;77.86
65378;SHT31;51982;51.042;13.806;2024-01-30T06:09:33;5.19;77.92
65378;SHT31;51982;51.042;13.806;2024-01-30T06:11:58;5.23;77.95
65378;SHT31;51982;51.042;13.806;2024-01-30T06:14:23;5.19;77.95
65378;SHT31;51982;51.042;13.806;2024-01-30T06:16:49;5.20;78.07
65378;SHT31;51982;51.042;13.806;2024-01-30T06:19:14;5.22;78.03
65378;SHT31;51982;51.042;13.806;2024-01-30T06:21:40;5.19;78.11
65378;SHT31;51982;51.042;13.806;2024-01-30T06:24:05;5.16;78.18
65378;SHT31;51982;51.042;13.806;2024-01-30T06:26:30;5.15;78.15
65378;SHT31;51982;51.042;13.806;2024-01-30T06:28:56;5.12;78.30
65378;SHT31;51982;51.042;13.806;2024-01-30T06:31:21;5.12;78.31
65378;SHT31;51982;51.042;13.806;2024-01-30T06:33:47;5.16;78.29
65378;SHT31;51982;51.042;13.806;2024-01-30T06:36:12;5.08;78.27
65378;SHT31;51982;51.042;13.806;2024-01-30T06:38:38;5.15;78.34
65378;SHT31;51982;51.042;13.806;2024-01-30T06:41:03;5.11;78.26
65378;SHT31;51982;51.042;13.806;2024-01-30T06:43:28;5.08;78.23
65378;SHT31;51982;51.042;13.806;2024-01-30T06:45:54;5.18;78.13
65378;SHT31;51982;51.042;13.806;2024-01-30T06:48:19;5.19;78.14
65378;SHT31;51982;51.042;13.806;2024-01-30T06:50:44;5.20;78.07
65378;SHT31;51982;51.042;13.806;2024-01-30T06:53:10;5.23;78.06
65378;SHT31;51982;51.042;13.806;2024-01-30T06:55:35;5.26;77.95
65378;SHT31;51982;51.042;13.806;2024-01-30T06:58:01;5.23;78.01
65378;SHT31;51982;51.042;13.806;2024-01-30T07:00:26;5.23;77.98
65378;SHT31;51982;51.042;13.806;2024-01-30T07:02:51;5.22;77.91
65378;SHT31;51982;51.042;13.806;2024-01-30T07:05:16;5.22;77.83
65378;SHT31;51982;51.042;13.806;2024-01-30T07:07:42;5.25;77.94
65378;SHT31;51982;51.042;13.806;2024-01-30T07:10:08;5.28;77.85
65378;SHT31;51982;51.042;13.806;2024-01-30T07:12:33;5.30;77.86
65378;SHT31;51982;51.042;13.806;2024-01-30T07:14:58;5.39;77.71
65378;SHT31;51982;51.042;13.806;2024-01-30T07:17:24;5.40;77.52
65378;SHT31;51982;51.042;13.806;2024-01-30T07:19:50;5.44;77.45
65378;SHT31;51982;51.042;13.806;2024-01-30T07:22:15;5.50;77.43
65378;SHT31;51982;51.042;13.806;2024-01-30T07:24:43;5.42;77.48
65378;SHT31;51982;51.042;13.806;2024-01-30T07:27:13;5.42;77.52
65378;SHT31;51982;51.042;13.806;2024-01-30T07:29:39;5.46;77.42
65378;SHT31;51982;51.042;13.806;2024-01-30T07:32:05;5.47;77.46
65378;SHT31;51982;51.042;13.806;2024-01-30T07:34:30;5.51;77.29
65378;SHT31;51982;51.042;13.806;2024-01-30T07:36:55;5.56;77.30
65378;SHT31;51982;51.042;13.806;2024-01-30T07:39:20;5.66;77.05
65378;SHT31;51982;51.042;13.806;2024-01-30T07:41:46;5.67;76.94
65378;SHT31;51982;51.042;13.806;2024-01-30T07:44:11;5.69;76.93
65378;SHT31;51982;51.042;13.806;2024-01-30T07:46:36;5.71;76.82
65378;SHT31;51982;51.042;13.806;2024-01-30T07:49:01;5.83;76.71
65378;SHT31;51982;51.042;13.806;2024-01-30T07:51:26;5.89;76.52
65378;SHT31;51982;51.042;13.806;2024-01-30T07:53:53;5.89;76.47
65378;SHT31;51982;51.042;13.806;2024-01-30T07:56:18;5.93;76.38
65378;SHT31;51982;51.042;13.806;2024-01-30T07:58:44;5.94;76.29
65378;SHT31;51982;51.042;13.806;2024-01-30T08:01:10;6.04;76.15
65378;SHT31;51982;51.042;13.806;2024-01-30T08:03:35;6.04;76.13
65378;SHT31;51982;51.042;13.806;2024-01-30T08:06:01;6.05;76.10
65378;SHT31;51982;51.042;13.806;2024-01-30T08:08:26;6.12;75.91
65378;SHT31;51982;51.042;13.806;2024-01-30T08:10:52;6.22;75.76
65378;SHT31;51982;51.042;13.806;2024-01-30T08:13:17;6.22;75.55
65378;SHT31;51982;51.042;13.806;2024-01-30T08:15:42;6.14;75.64
65378;SHT31;51982;51.042;13.806;2024-01-30T08:18:07;6.25;75.57
65378;SHT31;51982;51.042;13.806;2024-01-30T08:20:33;6.39;75.34
65378;SHT31;51982;51.042;13.806;2024-01-30T08:22:59;6.38;75.17
65378;SHT31;51982;51.042;13.806;2024-01-30T08:25:25;6.34;75.05
65378;SHT31;51982;51.042;13.806;2024-01-30T08:27:51;6.53;75.10
65378;SHT31;51982;51.042;13.806;2024-01-30T08:30:16;6.52;74.96
65378;SHT31;51982;51.042;13.806;2024-01-30T08:32:41;6.59;74.77
65378;SHT31;51982;51.042;13.806;2024-01-30T08:35:06;6.68;74.94
65378;SHT31;51982;51.042;13.806;2024-01-30T08:37:32;6.71;74.63
65378;SHT31;51982;51.042;13.806;2024-01-30T08:39:57;6.73;74.53
65378;SHT31;51982;51.042;13.806;2024-01-30T08:42:22;6.73;74.55
65378;SHT31;51982;51.042;13.806;2024-01-30T08:44:51;6.66;74.36
65378;SHT31;51982;51.042;13.806;2024-01-30T08:47:18;6.72;74.28
65378;SHT31;51982;51.042;13.806;2024-01-30T08:49:43;6.75;74.32
65378;SHT31;51982;51.042;13.806;2024-01-30T08:52:10;6.86;74.36
65378;SHT31;51982;51.042;13.806;2024-01-30T08:54:35;6.87;74.17
65378;SHT31;51982;51.042;13.806;2024-01-30T08:57:00;6.90;73.99
65378;SHT31;51982;51.042;13.806;2024-01-30T08:59:26;6.99;74.08
65378;SHT31;51982;51.042;13.806;2024-01-30T09:01:51;7.13;73.85
65378;SHT31;51982;51.042;13.806;2024-01-30T09:04:19;7.21;73.57
65378;SHT31;51982;51.042;13.806;2024-01-30T09:06:44;7.26;73.57
65378;SHT31;51982;51.042;13.806;2024-01-30T09:09:10;7.06;73.23
65378;SHT31;51982;51.042;13.806;2024-01-30T09:11:35;7.07;73.31
65378;SHT31;51982;51.042;13.806;2024-01-30T09:14:01;7.06;73.51
65378;SHT31;51982;51.042;13.806;2024-01-30T09:16:26;7.07;73.35
65378;SHT31;51982;51.042;13.806;2024-01-30T09:18:51;7.13;73.42
65378;SHT31;51982;51.042;13.806;2024-01-30T09:21:16;7.23;73.40
65378;SHT31;51982;51.042;13.806;2024-01-30T09:23:41;7.18;73.21
65378;SHT31;51982;51.042;13.806;2024-01-30T09:26:07;7.28;73.30
65378;SHT31;51982;51.042;13.806;2024-01-30T09:28:32;7.32;73.23
65378;SHT31;51982;51.042;13.806;2024-01-30T09:30:57;7.41;73.15
65378;SHT31;51982;51.042;13.806;2024-01-30T09:33:22;7.44;73.26
65378;SHT31;51982;51.042;13.806;2024-01-30T09:35:47;7.48;73.11
65378;SHT31;51982;51.042;13.806;2024-01-30T09:38:13;7.47;72.97
65378;SHT31;51982;51.042;13.806;2024-01-30T09:40:38;7.50;73.01
65378;SHT31;51982;51.042;13.806;2024-01-30T09:43:03;7.44;73.03
65378;SHT31;51982;51.042;13.806;2024-01-30T09:45:29;7.31;72.88
65378;SHT31;51982;51.042;13.806;2024-01-30T09:47:55;7.45;73.01
65378;SHT31;51982;51.042;13.806;2024-01-30T09:50:20;7.43;72.90
65378;SHT31;51982;51.042;13.806;2024-01-30T09:52:47;7.41;72.83
65378;SHT31;51982;51.042;13.806;2024-01-30T09:55:13;7.43;72.98
65378;SHT31;51982;51.042;13.806;2024-01-30T09:57:38;7.37;73.11
65378;SHT31;51982;51.042;13.806;2024-01-30T10:00:05;7.38;72.97
65378;SHT31;51982;51.042;13.806;2024-01-30T10:02:32;7.44;73.04
65378;SHT31;51982;51.042;13.806;2024-01-30T10:04:58;7.31;72.90
65378;SHT31;51982;51.042;13.806;2024-01-30T10:07:24;7.31;73.07
65378;SHT31;51982;51.042;13.806;2024-01-30T10:09:49;7.32;73.25
65378;SHT31;51982;51.042;13.806;2024-01-30T10:12:15;7.32;73.11
65378;SHT31;51982;51.042;13.806;2024-01-30T10:14:41;7.34;73.17
65378;SHT31;51982;51.042;13.806;2024-01-30T10:17:10;7.45;73.01
65378;SHT31;51982;51.042;13.806;2024-01-30T10:19:36;7.40;73.05
65378;SHT31;51982;51.042;13.806;2024-01-30T10:22:03;7.34;73.06
65378;SHT31;51982;51.042;13.806;2024-01-30T10:24:28;7.31;73.15
65378;SHT31;51982;51.042;13.806;2024-01-30T10:26:55;7.32;73.08
65378;SHT31;51982;51.042;13.806;2024-01-30T10:29:20;7.40;73.23
65378;SHT31;51982;51.042;13.806;2024-01-30T10:31:57;7.54;73.15
65378;SHT31;51982;51.042;13.806;2024-01-30T10:34:22;7.44;72.85
65378;SHT31;51982;51.042;13.806;2024-01-30T10:36:49;7.48;72.73
65378;SHT31;51982;51.042;13.806;2024-01-30T10:39:17;7.52;72.57
65378;SHT31;51982;51.042;13.806;2024-01-30T10:41:43;7.67;72.75
65378;SHT31;51982;51.042;13.806;2024-01-30T10:44:10;7.75;72.41
65378;SHT31;51982;51.042;13.806;2024-01-30T10:46:37;7.62;72.07
65378;SHT31;51982;51.042;13.806;2024-01-30T10:49:04;7.69;72.23
65378;SHT31;51982;51.042;13.806;2024-01-30T10:51:31;7.82;72.06
65378;SHT31;51982;51.042;13.806;2024-01-30T10:53:57;7.89;72.09
65378;SHT31;51982;51.042;13.806;2024-01-30T10:56:23;7.99;72.16
65378;SHT31;51982;51.042;13.806;2024-01-30T10:58:53;8.00;72.08
65378;SHT31;51982;51.042;13.806;2024-01-30T11:01:20;7.95;71.94
65378;SHT31;51982;51.042;13.806;2024-01-30T11:03:49;8.05;72.08
65378;SHT31;51982;51.042;13.806;2024-01-30T11:06:14;8.02;71.96
65378;SHT31;51982;51.042;13.806;2024-01-30T11:08:43;7.88;72.14
65378;SHT31;51982;51.042;13.806;2024-01-30T11:11:09;7.95;72.14
65378;SHT31;51982;51.042;13.806;2024-01-30T11:13:35;7.99;72.09
65378;SHT31;51982;51.042;13.806;2024-01-30T11:16:04;8.05;71.98
65378;SHT31;51982;51.042;13.806;2024-01-30T11:18:31;8.07;71.78
65378;SHT31;51982;51.042;13.806;2024-01-30T11:20:57;8.05;72.06
65378;SHT31;51982;51.042;13.806;2024-01-30T11:23:23;8.07;71.96
65378;SHT31;51982;51.042;13.806;2024-01-30T11:25:48;8.02;71.78
65378;SHT31;51982;51.042;13.806;2024-01-30T11:28:15;8.00;71.94
65378;SHT31;51982;51.042;13.806;2024-01-30T11:30:41;7.89;71.91
65378;SHT31;51982;51.042;13.806;2024-01-30T11:33:07;7.90;71.95
65378;SHT31;51982;51.042;13.806;2024-01-30T11:35:38;7.79;71.89
65378;SHT31;51982;51.042;13.806;2024-01-30T11:38:05;7.98;71.77
65378;SHT31;51982;51.042;13.806;2024-01-30T11:40:31;7.93;71.67
65378;SHT31;51982;51.042;13.806;2024-01-30T11:42:59;8.03;71.61
65378;SHT31;51982;51.042;13.806;2024-01-30T11:45:26;8.20;71.44
65378;SHT31;51982;51.042;13.806;2024-01-30T11:47:52;8.29;71.41
65378;SHT31;51982;51.042;13.806;2024-01-30T11:50:17;8.28;70.98
65378;SHT31;51982;51.042;13.806;2024-01-30T11:52:42;8.34;71.11
65378;SHT31;51982;51.042;13.806;2024-01-30T11:55:09;8.33;70.94
65378;SHT31;51982;51.042;13.806;2024-01-30T11:57:34;8.37;70.85
65378;SHT31;51982;51.042;13.806;2024-01-30T12:00:01;8.19;70.81
65378;SHT31;51982;51.042;13.806;2024-01-30T12:02:28;8.26;71.07
65378;SHT31;51982;51.042;13.806;2024-01-30T12:04:54;8.33;70.94
65378;SHT31;51982;51.042;13.806;2024-01-30T12:07:19;8.33;70.82
65378;SHT31;51982;51.042;13.806;2024-01-30T12:09:52;8.39;70.63
65378;SHT31;51982;51.042;13.806;2024-01-30T12:12:18;8.32;70.49
65378;SHT31;51982;51.042;13.806;2024-01-30T12:14:43;8.46;70.47
65378;SHT31;51982;51.042;13.806;2024-01-30T12:17:08;8.49;70.30
65378;SHT31;51982;51.042;13.806;2024-01-30T12:19:34;8.57;70.19
65378;SHT31;51982;51.042;13.806;2024-01-30T12:21:59;8.59;70.29
65378;SHT31;51982;51.042;13.806;2024-01-30T12:24:26;8.57;70.15
65378;SHT31;51982;51.042;13.806;2024-01-30T12:26:51;8.51;70.20
65378;SHT31;51982;51.042;13.806;2024-01-30T12:29:17;8.54;70.29
65378;SHT31;51982;51.042;13.806;2024-01-30T12:31:42;8.64;70.31
65378;SHT31;51982;51.042;13.806;2024-01-30T12:34:08;8.51;70.25
65378;SHT31;51982;51.042;13.806;2024-01-30T12:36:34;8.33;70.25
65378;SHT31;51982;51.042;13.806;2024-01-30T12:39:00;8.46;70.57
65378;SHT31;51982;51.042;13.806;2024-01-30T12:41:25;8.14;70.73
65378;SHT31;51982;51.042;13.806;2024-01-30T12:43:54;8.19;70.75
65378;SHT31;51982;51.042;13.806;2024-01-30T12:46:20;8.12;71.00
65378;SHT31;51982;51.042;13.806;2024-01-30T12:48:45;8.10;70.99
65378;SHT31;51982;51.042;13.806;2024-01-30T12:51:10;8.19;71.08
65378;SHT31;51982;51.042;13.806;2024-01-30T12:53:36;8.09;71.17
65378;SHT31;51982;51.042;13.806;2024-01-30T12:56:01;8.17;71.18
65378;SHT31;51982;51.042;13.806;2024-01-30T12:58:26;8.12;71.04
65378;SHT31;51982;51.042;13.806;2024-01-30T13:00:52;8.07;70.99
65378;SHT31;51982;51.042;13.806;2024-01-30T13:03:18;7.96;71.07
65378;SHT31;51982;51.042;13.806;2024-01-30T13:05:44;8.09;71.03
65378;SHT31;51982;51.042;13.806;2024-01-30T13:08:09;8.07;70.85
65378;SHT31;51982;51.042;13.806;2024-01-30T13:10:34;8.17;70.87
65378;SHT31;51982;51.042;13.806;2024-01-30T13:12:59;8.25;70.68
65378;SHT31;51982;51.042;13.806;2024-01-30T13:15:25;8.25;70.76
65378;SHT31;51982;51.042;13.806;2024-01-30T13:17:50;8.29;70.52
65378;SHT31;51982;51.042;13.806;2024-01-30T13:20:15;8.30;70.58
65378;SHT31;51982;51.042;13.806;2024-01-30T13:22:47;8.14;70.38
65378;SHT31;51982;51.042;13.806;2024-01-30T13:25:12;8.22;70.67
65378;SHT31;51982;51.042;13.806;2024-01-30T13:27:37;8.30;70.65
65378;SHT31;51982;51.042;13.806;2024-01-30T13:30:03;8.25;70.53
65378;SHT31;51982;51.042;13.806;2024-01-30T13:32:29;8.29;70.39
65378;SHT31;51982;51.042;13.806;2024-01-30T13:34:54;8.34;70.41
65378;SHT31;51982;51.042;13.806;2024-01-30T13:37:19;8.41;70.21
65378;SHT31;51982;51.042;13.806;2024-01-30T13:39:45;8.49;70.25
65378;SHT31;51982;51.042;13.806;2024-01-30T13:42:10;8.51;70.13
65378;SHT31;51982;51.042;13.806;2024-01-30T13:44:35;8.50;70.21
65378;SHT31;51982;51.042;13.806;2024-01-30T13:47:01;8.43;70.36
65378;SHT31;51982;51.042;13.806;2024-01-30T13:49:26;8.40;70.30
65378;SHT31;51982;51.042;13.806;2024-01-30T13:51:52;8.29;70.61
65378;SHT31;51982;51.042;13.806;2024-01-30T13:54:17;8.05;70.80
65378;SHT31;51982;51.042;13.806;2024-01-30T13:56:42;8.09;70.97
65378;SHT31;51982;51.042;13.806;2024-01-30T13:59:07;8.06;71.06
65378;SHT31;51982;51.042;13.806;2024-01-30T14:01:33;8.16;71.02
65378;SHT31;51982;51.042;13.806;2024-01-30T14:03:58;8.17;70.90
65378;SHT31;51982;51.042;13.806;2024-01-30T14:06:23;8.20;70.80
65378;SHT31;51982;51.042;13.806;2024-01-30T14:08:49;8.19;70.81
65378;SHT31;51982;51.042;13.806;2024-01-30T14:11:14;8.14;70.93
65378;SHT31;51982;51.042;13.806;2024-01-30T14:13:39;8.19;70.96
65378;SHT31;51982;51.042;13.806;2024-01-30T14:16:05;8.20;71.05
65378;SHT31;51982;51.042;13.806;2024-01-30T14:18:30;8.22;71.03
65378;SHT31;51982;51.042;13.806;2024-01-30T14:20:55;8.29;70.87
65378;SHT31;51982;51.042;13.806;2024-01-30T14:23:21;8.26;71.00
65378;SHT31;51982;51.042;13.806;2024-01-30T14:25:46;8.25;70.86
65378;SHT31;51982;51.042;13.806;2024-01-30T14:28:11;8.23;70.92
65378;SHT31;51982;51.042;13.806;2024-01-30T14:30:37;8.16;71.01
65378;SHT31;51982;51.042;13.806;2024-01-30T14:33:02;8.02;71.15
65378;SHT31;51982;51.042;13.806;2024-01-30T14:35:27;7.96;71.46
65378;SHT31;51982;51.042;13.806;2024-01-30T14:37:53;8.05;71.36
65378;SHT31;51982;51.042;13.806;2024-01-30T14:40:18;7.99;71.40
65378;SHT31;51982;51.042;13.806;2024-01-30T14:42:44;7.89;71.43
65378;SHT31;51982;51.042;13.806;2024-01-30T14:45:09;7.74;71.56
65378;SHT31;51982;51.042;13.806;2024-01-30T14:47:35;7.78;71.67
65378;SHT31;51982;51.042;13.806;2024-01-30T14:50:01;7.67;71.76
65378;SHT31;51982;51.042;13.806;2024-01-30T14:52:26;7.64;71.88
65378;SHT31;51982;51.042;13.806;2024-01-30T14:54:51;7.71;71.91
65378;SHT31;51982;51.042;13.806;2024-01-30T14:57:17;7.69;71.88
65378;SHT31;51982;51.042;13.806;2024-01-30T14:59:42;7.68;71.89
65378;SHT31;51982;51.042;13.806;2024-01-30T15:02:07;7.68;71.94
65378;SHT31;51982;51.042;13.806;2024-01-30T15:04:33;7.59;72.00
65378;SHT31;51982;51.042;13.806;2024-01-30T15:06:59;7.55;71.97
65378;SHT31;51982;51.042;13.806;2024-01-30T15:09:24;7.51;72.16
65378;SHT31;51982;51.042;13.806;2024-01-30T15:11:51;7.48;72.14
65378;SHT31;51982;51.042;13.806;2024-01-30T15:14:16;7.43;72.20
65378;SHT31;51982;51.042;13.806;2024-01-30T15:16:42;7.48;72.24
65378;SHT31;51982;51.042;13.806;2024-01-30T15:19:07;7.40;72.31